• Join FlightAware (Why Join?)
  • Login
  • US Flag 
05:34PM EDT


 

Airport Tracker/Info


-or-


 

Live Flight TrackerFlight Track Log ✈ BAW2649 ✈ 06-Jul-2014 ✈ LATI / TIA - EGKK / LGW

Flight Track Log - Related Links

Times and Time Zones

All times are in EDT time to prevent confusion due to time zone crossing. See the BAW2649 flight status page for this flight to view local times or setup timezone preferences in your user account.

Time Position Orientation Groundspeed Altitude Reporting Facility
EDT Latitude Longitude Course Direction KTS MPH feet Rate Location/Type
05:53AM 41.4888 19.6115 312° West  Level Estimated
05:54AM 41.5628 19.5022 312° West  Level Estimated
05:55AM 41.6367 19.3926 312° West  Level Estimated
05:56AM 41.7105 19.2828 312° West  Level Estimated
05:57AM 41.7842 19.1727 312° West  Level Estimated
05:58AM 41.8577 19.0623 312° West  Level Estimated
05:59AM 41.9312 18.9518 312° West  Level Estimated
06:00AM 42.0046 18.8409 312° West  Level Estimated
06:01AM 42.0778 18.7298 312° West  Level Estimated
06:02AM 42.1510 18.6185 312° West  Level Estimated
06:03AM 42.2240 18.5068 311° West  Level Estimated
06:04AM 42.2970 18.3950 311° West  Level Estimated
06:05AM 42.3698 18.2829 311° West  Level Estimated
06:06AM 42.4425 18.1705 311° West  Level Estimated
06:07AM 42.5151 18.0578 311° West  Level Estimated
06:08AM 42.5876 17.9449 311° West  Level Estimated
06:09AM 42.6600 17.8317 311° West  Level Estimated
06:10AM 42.7286 17.7240 311° West  Level Estimated
06:11AM 42.7972 17.6160 311° West  Level Estimated
06:12AM 42.8656 17.5077 311° West  Level Estimated
06:13AM 42.9340 17.3993 311° West  Level Estimated
06:14AM 43.0022 17.2905 311° West  Level Estimated
06:15AM 43.0704 17.1816 311° West  Level Estimated
06:16AM 43.1384 17.0724 311° West  Level Estimated
06:17AM 43.2064 16.9629 310° West  Level Estimated
06:18AM 43.2742 16.8532 310° West  Level Estimated
06:19AM 43.3419 16.7433 310° West  Level Estimated
06:20AM 43.4096 16.6331 310° West  Level Estimated
06:21AM 43.4771 16.5227 310° West  Level Estimated
06:22AM 43.5445 16.4120 310° West  Level Estimated
06:23AM 43.6118 16.3011 310° West  Level Estimated
06:24AM 43.6790 16.1899 310° West  Level Estimated
06:25AM 43.7461 16.0785 310° West  Level Estimated
06:26AM 43.8131 15.9669 310° West  Level Estimated
06:27AM 43.8799 15.8549 310° West  Level Estimated
06:28AM 43.9467 15.7428 310° West  Level Estimated
06:29AM 44.0134 15.6303 310° West  Level Estimated
06:30AM 44.0799 15.5177 309° West  Level Estimated
06:31AM 44.1463 15.4047 309° West  Level Estimated
06:32AM 44.2127 15.2916 309° West  Level Estimated
06:33AM 44.2789 15.1781 309° West  Level Estimated
06:34AM 44.3450 15.0644 309° West  Level Estimated
06:35AM 44.4109 14.9505 309° West  Level Estimated
06:36AM 44.4768 14.8363 309° West  Level Estimated
06:37AM 44.5426 14.7218 309° West  Level Estimated
06:38AM 44.6082 14.6071 309° West  Level Estimated
06:39AM 44.6737 14.4921 309° West  Level Estimated
06:40AM 44.7391 14.3769 309° West  Level Estimated
06:41AM 44.8044 14.2613 309° West  Level Estimated
06:42AM 44.8696 14.1456 308° West  Level Estimated
06:43AM 44.9347 14.0296 308° West  Level Estimated
06:44AM 44.9996 13.9133 308° West  Level Estimated
06:45AM 45.0644 13.7967 308° West  Level Estimated
06:46AM 45.5779 12.4788 299° West 433 498 36,000  Level FlightAware ADS-B (ETSE)
06:47AM 45.6260 12.3544 299° West 434 499 36,000  Level FlightAware ADS-B (ETSE)
06:47AM 45.6550 12.2783 299° West 435 501 36,000  Level FlightAware ADS-B (ETSE)
06:48AM 45.6935 12.1780 299° West 436 502 36,000  Level FlightAware ADS-B (ETSE)
06:48AM 45.7206 12.1076 299° West 437 503 36,000  Level FlightAware ADS-B (ETSE)
06:49AM 45.7582 12.0081 298° West 439 505 36,000  Level FlightAware ADS-B (ETSE)
06:50AM 45.8003 11.8974 298° West 440 506 36,000  Level FlightAware ADS-B (ETSE)
06:50AM 45.8405 11.7906 298° West 441 507 36,000  Level FlightAware ADS-B (ETSE)
06:51AM 45.8776 11.6930 298° West 442 509 36,000  Level FlightAware ADS-B (ETSE)
06:52AM 45.9115 11.6025 298° West 443 510 36,000  Level FlightAware ADS-B (ETSE)
06:52AM 45.9401 11.5252 298° West 442 509 36,000  Level FlightAware ADS-B (ETSE)
06:53AM 45.9745 11.4335 298° West 442 509 36,000  Level FlightAware ADS-B (ETSE)
06:53AM 46.0054 11.3506 298° West 441 507 36,000  Level FlightAware ADS-B (ETSE)
06:54AM 46.0332 11.2753 298° West 441 507 36,000  Level FlightAware ADS-B (ETSE)
06:54AM 46.0629 11.1953 298° West 440 506 36,000  Level FlightAware ADS-B (ETSE)
06:55AM 46.1039 11.0835 298° West 440 506 36,000  Level FlightAware ADS-B (ETSE)
06:56AM 46.1359 10.9965 298° West 440 506 36,000  Level FlightAware ADS-B (ETSE)
06:56AM 46.1622 10.9242 298° West 441 507 36,000  Level FlightAware ADS-B (ETSE)
06:57AM 46.1984 10.8249 298° West 443 510 36,000  Level FlightAware ADS-B (ETSE)
06:57AM 46.2382 10.7152 298° West 445 512 36,000  Level FlightAware ADS-B (ETSE)
06:58AM 46.2768 10.6086 298° West 444 511 36,000  Level FlightAware ADS-B (ETSE)
06:59AM 46.3093 10.5183 297° West 445 512 36,000  Level FlightAware ADS-B (ETSE)
06:59AM 46.3456 10.4176 297° West 446 513 36,000  Level FlightAware ADS-B (ETSE)
07:00AM 46.3747 10.3357 297° West 446 513 36,000  Level FlightAware ADS-B (ETSE)
07:00AM 46.3976 10.2719 297° West 446 513 36,000  Level FlightAware ADS-B (ETSE)
07:01AM 46.4303 10.1790 297° West 445 512 36,000  Level FlightAware ADS-B (EDDM / MUC)
07:01AM 46.4606 10.0918 297° West 447 514 36,000  Level FlightAware ADS-B (ETSE)
07:02AM 46.4943 9.9956 297° West 447 514 36,000  Level FlightAware ADS-B (ETSE)
07:03AM 46.5365 9.8732 297° West 446 513 36,000  Level FlightAware ADS-B (ETSE)
07:03AM 46.5703 9.7752 297° West 446 513 36,000  Level FlightAware ADS-B (ETSE)
07:04AM 46.5703 9.7752 297° West 447 514 36,000  Level FlightAware ADS-B (ETSE)
07:05AM 46.5365 9.8732 296° West 450 518 36,000  Level FlightAware ADS-B (ETSE)
07:08AM 46.8020 9.0912 296° West 451 519 36,000  Level FlightAware ADS-B (ETSE)
07:10AM 46.8644 8.9040 296° West 450 518 36,000  Level FlightAware ADS-B
07:10AM 46.9523 8.6251 291° West 446 513 36,000  Level FlightAware ADS-B
07:13AM 46.9523 8.6251 291° West 448 516 36,000  Level FlightAware ADS-B
07:16AM 47.2371 7.6441 294° West 454 522 36,000  Level FlightAware ADS-B (LSZH / ZRH)
07:19AM 47.3866 7.1307 293° West 461 531 36,000  Level FlightAware ADS-B
07:20AM 47.4278 6.9883 293° West 462 532 36,000  Level FlightAware ADS-B
07:21AM 47.4893 6.7761 293° West 458 527 36,100  Climbing FlightAware ADS-B
07:22AM 47.5247 6.6541 293° West 456 525 36,000 -60 Descending FlightAware ADS-B
07:23AM 47.5493 6.5691 293° West 455 524 36,000  Level FlightAware ADS-B
07:24AM 47.6071 6.3689 293° West 454 522 36,000  Level FlightAware ADS-B
07:24AM 47.6439 6.2408 293° West 457 526 36,000  Level FlightAware ADS-B
07:25AM 47.6678 6.1571 293° West 457 526 36,000  Level FlightAware ADS-B
07:25AM 47.6968 6.0541 292° West 454 522 36,000  Level FlightAware ADS-B
07:44AM 49.0979 3.3357 313° West 469 540 36,000  Level FlightAware ADS-B (LFPO / ORY)
07:44AM 49.1775 3.2037 313° West 464 534 36,000  Level FlightAware ADS-B (LFPO / ORY)
07:45AM 49.2018 3.1600 313° West 456 525 36,000  Level FlightAware UK
07:45AM 49.2540 3.0742 313° West 582 670 36,000  Level FlightAware UK
07:46AM 49.2964 3.0012 312° West 463 533 36,000  Level FlightAware UK
07:46AM 49.3157 2.9731 312° West 456 525 36,000  Level FlightAware ADS-B (EGLF / FAB)
07:47AM 49.3903 2.8475 312° West 456 525 36,000  Level FlightAware ADS-B (EGWE)
07:47AM 49.3979 2.8317 312° West 481 554 36,000  Level FlightAware UK
07:48AM 49.5095 2.6474 312° West 469 540 36,000  Level FlightAware UK
07:49AM 49.5570 2.5652 312° West 456 525 36,000 -120 Level FlightAware ADS-B (EHRD / RTM)
07:49AM 49.6021 2.4885 312° West 456 525 35,900 -240 Descending FlightAware UK
07:49AM 49.5709 2.5413 312° West 456 525 35,900 -1,020 Level FlightAware ADS-B (EHRD / RTM)
07:50AM 49.6444 2.4160 312° West 456 525 35,400 -1,260 Descending FlightAware UK
07:50AM 49.5811 2.5240 312° West 457 526 35,200 -840 Descending FlightAware ADS-B (EGKA / ESH)
07:50AM 49.6953 2.3295 312° West 456 525 34,900 -300 Descending FlightAware UK
07:51AM 49.7048 2.3123 312° West 457 526 35,000 60 Climbing FlightAware ADS-B (LFPO / ORY)
07:51AM 49.7625 2.2128 312° West 456 525 35,000  Level FlightAware ADS-B (EGLF / FAB)
07:52AM 49.8336 2.0741 303° West 442 509 35,000  Level FlightAware ADS-B (EHGR / GLZ)
07:53AM 49.8566 2.0223 305° West 445 512 35,000  Level FlightAware ADS-B (EGLF / FAB)
07:53AM 49.9095 1.9048 305° West 444 511 35,000  Level FlightAware UK
07:53AM 49.9258 1.8747 313° West 454 522 35,000  Level FlightAware ADS-B (EGKA / ESH)
07:54AM 49.9561 1.8262 315° West 455 524 35,000 -960 Level FlightAware ADS-B (EHRD / RTM)
07:55AM 49.8991 1.9271 315° West 450 518 33,700 -1,800 Descending FlightAware ADS-B (EGLF / FAB)
07:56AM 49.9258 1.8747 314° West 442 509 32,400 -1,920 Descending FlightAware ADS-B (EGKA / ESH)
07:56AM 50.1689 1.4907 314° West 438 504 31,200 -2,820 Descending FlightAware UK
07:57AM 50.2191 1.4079 313° West 454 522 29,100 -4,080 Descending FlightAware UK
07:57AM 50.1409 1.5348 310° West 470 541 27,400 -3,120 Descending FlightAware ADS-B (EGLF / FAB)
07:58AM 50.3275 1.2079 310° West 460 529 25,100 -2,640 Descending FlightAware UK
07:59AM 50.3770 1.1197 311° West 448 516 23,300 -3,780 Descending FlightAware UK
07:59AM 50.3206 1.2206 311° West 449 517 22,300 -3,120 Descending FlightAware ADS-B (EGLF / FAB)
08:00AM 50.4737 0.9533 311° West 426 490 19,600 -2,520 Descending FlightAware UK
08:00AM 50.4543 0.9857 312° West 426 490 18,800 -3,000 Descending FlightAware ADS-B (EGLF / FAB)
08:01AM 50.5449 0.8491 317° Northwest 402 463 17,000 -3,840 Descending FlightAware ADS-B (EGKA / ESH)
08:01AM 50.5476 0.8452 316° Northwest 402 463 16,400 -780 Descending FlightAware ADS-B (EGLF / FAB)
08:02AM 50.5351 0.8638 316° Northwest 338 389 16,000 -360 Descending FlightAware ADS-B (EGTR / ETR)
08:03AM 50.6707 0.6584 318° Northwest 310 357 15,800 -600 Descending FlightAware ADS-B (EGLW)
08:03AM 50.7254 0.5803 318° Northwest 297 342 15,300 -900 Descending FlightAware ADS-B (EGLF / FAB)
08:03AM 50.7369 0.5638 317° Northwest 288 331 15,200 -1,020 Descending FlightAware ADS-B (EGKK / LGW)
08:04AM 50.7467 0.5497 316° Northwest 287 330 15,000 -1,260 Descending FlightAware ADS-B (EGMD / LYX)
08:04AM 50.7619 0.5279 317° Northwest 285 328 14,700 -1,080 Descending FlightAware ADS-B (EGWU / NHT)
08:04AM 50.7928 0.4832 318° Northwest 289 333 14,200 -720 Descending FlightAware ADS-B (EGLW)
08:05AM 50.8212 0.4423 317° Northwest 288 331 14,000 -180 Descending FlightAware ADS-B (EGLW)
08:05AM 50.8571 0.3904 318° Northwest 288 331 14,000  Level FlightAware ADS-B (EGLF / FAB)
08:06AM 50.8777 0.3606 318° Northwest 285 328 14,000  Level FlightAware ADS-B (EGTR / ETR)
08:06AM 50.8981 0.3311 317° Northwest 284 327 14,000  Level FlightAware ADS-B (EGHL / QLA)
08:06AM 50.9104 0.3133 316° Northwest 271 312 14,000  Level FlightAware ADS-B (EGHL / QLA)
08:07AM 50.9182 0.3020 317° Northwest 270 311 14,000  Level FlightAware ADS-B (EGMD / LYX)
08:07AM 50.9333 0.2802 316° Northwest 269 310 14,000  Level FlightAware ADS-B (EGKK / LGW)
08:07AM 50.9528 0.2531 326° Northwest 274 315 14,000  Level FlightAware ADS-B (EGKK / LGW)
08:07AM 50.9638 0.2438 340° North 288 331 14,000  Level FlightAware ADS-B (EGLF / FAB)
08:07AM 50.9741 0.2393 356° North 299 344 14,000  Level FlightAware ADS-B (EGLW)
08:08AM 50.9859 0.2388 North 304 350 14,000  Level FlightAware ADS-B (EGKA / ESH)
08:08AM 50.9887 0.2393 17° North 308 354 14,000  Level FlightAware ADS-B (EGTR / ETR)
08:08AM 51.0009 0.2453 26° Northeast 303 349 14,000  Level FlightAware ADS-B (EGMD / LYX)
08:08AM 51.0076 0.2514 37° Northeast 305 351 14,000  Level FlightAware ADS-B (EGHH / BOH)
08:08AM 51.0162 0.2632 48° Northeast 312 359 14,000  Level FlightAware ADS-B (EGHL / QLA)
08:08AM 51.0202 0.2713 60° Northeast 310 357 14,000  Level FlightAware ADS-B (EGKA / ESH)
08:08AM 51.0222 0.2765 60° Northeast 310 357 14,000  Level FlightAware ADS-B (EGLF / FAB)
08:08AM 51.0248 0.2848 71° East 306 352 14,000  Level FlightAware ADS-B (EGTR / ETR)
08:08AM 51.0258 0.2890 83° East 300 345 14,000  Level FlightAware ADS-B (EGHL / QLA)
08:08AM 51.0282 0.3104 90° East 296 341 14,000  Level FlightAware ADS-B (EGLW)
08:09AM 51.0266 0.3320 83° East 300 345 14,000  Level FlightAware ADS-B (EGHJ / BBP)
08:09AM 51.0241 0.3426 114° Southeast 278 320 14,000  Level FlightAware ADS-B (EGLL / LHR)
08:09AM 51.0218 0.3498 83° East 300 345 14,000  Level FlightAware ADS-B (EGHJ / BBP)
08:09AM 51.0184 0.3577 127° Southeast 268 308 14,000  Level FlightAware ADS-B (EGLF / FAB)
08:09AM 51.0148 0.3651 129° Southeast 266 306 14,000  Level FlightAware ADS-B (EGWU / NHT)
08:09AM 51.0087 0.3772 128° Southeast 264 304 14,000  Level FlightAware ADS-B (EGKA / ESH)
08:09AM 50.9970 0.4013 127° Southeast 263 303 14,000 -540 Level FlightAware ADS-B (EGLW)
08:09AM 50.9887 0.4187 128° Southeast 260 299 13,800 -1,200 Descending FlightAware ADS-B (EGWE)
08:10AM 50.9780 0.4405 128° Southeast 257 296 13,500 -1,380 Descending FlightAware ADS-B (EGTR / ETR)
08:10AM 50.9647 0.4628 144° Southeast 248 285 13,100 -1,140 Descending FlightAware ADS-B (EGLW)
08:10AM 50.9620 0.4657 156° South 240 276 13,000 -300 Descending FlightAware ADS-B (EGLW)
08:10AM 50.9444 0.4766 171° South 229 264 13,000  Level FlightAware ADS-B (EGHL / QLA)
08:10AM 50.9385 0.4778 176° South 237 273 13,000  Level FlightAware ADS-B (EGLL / LHR)
08:11AM 50.9291 0.4772 188° South 225 259 13,000  Level FlightAware ADS-B (EGWU / NHT)
08:11AM 50.9212 0.4744 199° South 231 266 13,000  Level FlightAware ADS-B (EGLL / LHR)
08:11AM 50.9070 0.4625 217° Southwest 231 266 13,000 -420 Level FlightAware ADS-B (EGLL / LHR)
08:11AM 50.8968 0.4458 239° Southwest 233 268 12,800 -900 Descending FlightAware ADS-B (EGLL / LHR)
08:11AM 50.8933 0.4365 244° Southwest 234 269 12,700 -1,200 Descending FlightAware ADS-B (EGTR / ETR)
08:11AM 50.8914 0.4291 252° West 236 272 12,600 -900 Descending FlightAware ADS-B (EGLW)
08:11AM 50.8890 0.4141 264° West 242 278 12,500 -540 Descending FlightAware ADS-B (EGLW)
08:12AM 50.8887 0.4100 258° West 235 270 12,500 -600 Level FlightAware ADS-B (EGHO)
08:12AM 50.8887 0.3949 277° West 250 288 12,400 -1,020 Descending FlightAware ADS-B (EGHL / QLA)
08:12AM 50.8897 0.3860 283° West 254 292 12,300 -840 Descending FlightAware ADS-B (EGKA / ESH)
08:12AM 50.8936 0.3690 297° West 262 302 12,200 -720 Descending FlightAware ADS-B (EGLW)
08:12AM 50.8950 0.3649 308° West 265 305 12,100 -660 Descending FlightAware ADS-B (EGLW)
08:12AM 50.9067 0.3398 308° West 263 303 12,000 -180 Descending FlightAware ADS-B (EGKK / LGW)
08:13AM 50.9296 0.2939 308° West 258 297 12,000  Level FlightAware ADS-B (EGLF / FAB)
08:13AM 50.9363 0.2804 308° West 260 299 12,000  Level FlightAware ADS-B (EGHO)
08:13AM 50.9498 0.2549 318° Northwest 261 300 12,000  Level FlightAware ADS-B (EGLL / LHR)
08:13AM 50.9572 0.2464 329° Northwest 265 305 12,000  Level FlightAware ADS-B (EGLW)
08:13AM 50.9653 0.2404 340° North 270 311 12,000  Level FlightAware ADS-B (EGLL / LHR)
08:14AM 50.9739 0.2375 354° North 274 315 12,000  Level FlightAware ADS-B (EGKK / LGW)
08:14AM 50.9783 0.2372 North 278 320 12,000  Level FlightAware ADS-B (EGLW)
08:14AM 50.9964 0.2436 28° Northeast 277 319 12,000  Level FlightAware ADS-B (EGHH / BOH)
08:14AM 51.0010 0.2477 36° Northeast 279 321 12,000  Level FlightAware ADS-B (EGHJ / BBP)
08:14AM 51.0061 0.2543 44° Northeast 287 330 12,000 -600 Level FlightAware ADS-B (EGHL / QLA)
08:14AM 51.0114 0.2637 56° Northeast 283 326 11,900 -900 Descending FlightAware ADS-B (EGHJ / BBP)
08:14AM 51.0166 0.2786 50° Northeast 283 326 11,800 -900 Descending FlightAware ADS-B (EGLG)
08:14AM 51.0180 0.2864 81° East 283 326 11,700 -960 Descending FlightAware ADS-B (EGLW)
08:14AM 51.0190 0.2962 94° East 281 323 11,600 -900 Descending FlightAware ADS-B (EGLL / LHR)
08:15AM 51.0186 0.3126 107° East 277 319 11,500 -960 Descending FlightAware ADS-B (EGLG)
08:15AM 51.0167 0.3227 118° Southeast 273 314 11,400 -900 Descending FlightAware ADS-B (EGLW)
08:15AM 51.0091 0.3440 83° East 283 326 11,300 -780 Descending FlightAware ADS-B (EGHO)
08:15AM 51.0054 0.3508 132° Southeast 267 307 11,200 -960 Descending FlightAware ADS-B (EGLL / LHR)
08:15AM 51.0091 0.3440 144° Southeast 262 302 11,100 -840 Descending FlightAware ADS-B (EGLW)
08:15AM 50.9891 0.3695 165° South 252 290 11,000  Descending FlightAware ADS-B (EGLL / LHR)
08:15AM 50.9933 0.3667 152° Southeast 258 297 11,100  Climbing FlightAware ADS-B (EGKK / LGW)
08:15AM 50.9767 0.3721 183° South 245 282 11,000 -480 Descending FlightAware ADS-B (EGLW)
08:15AM 50.9704 0.3705 198° South 243 280 11,000  Level FlightAware ADS-B (EGLL / LHR)
08:15AM 50.9658 0.3677 209° Southwest 243 280 11,000  Level FlightAware ADS-B (EGMD / LYX)
08:16AM 50.9601 0.3623 221° Southwest 241 277 11,000  Level FlightAware ADS-B (EGTR / ETR)
08:16AM 50.9523 0.3481 235° Southwest 236 272 11,000  Level FlightAware ADS-B (EGWU / NHT)
08:16AM 50.9527 0.3490 250° West 242 278 11,000  Level FlightAware ADS-B (EGLW)
08:16AM 50.9481 0.3277 267° West 244 281 11,000  Level FlightAware ADS-B (EGTR / ETR)
08:16AM 50.9479 0.3176 270° West 245 282 11,000  Level FlightAware ADS-B (EGWU / NHT)
08:16AM 50.9481 0.3007 272° West 249 287 11,000  Level FlightAware ADS-B (EGLW)
08:16AM 50.9486 0.2814 272° West 247 284 11,000 -360 Level FlightAware ADS-B (EGLW)
08:17AM 50.9487 0.2700 272° West 244 281 10,900 -1,320 Descending FlightAware ADS-B (EGLF / FAB)
08:17AM 50.9490 0.2458 271° West 242 278 10,600 -1,920 Descending FlightAware ADS-B (EGLW)
08:17AM 50.9494 0.2286 271° West 243 280 10,200 -1,560 Descending FlightAware ADS-B (EGKA / ESH)
08:17AM 50.9500 0.2012 272° West 240 276 9,900 -1,200 Descending FlightAware ADS-B (EGLL / LHR)
08:17AM 50.9505 0.1770 272° West 236 272 9,600 -1,440 Descending FlightAware ADS-B (EGLF / FAB)
08:18AM 50.9507 0.1568 272° West 233 268 9,300 -1,800 Descending FlightAware ADS-B (EGKK / LGW)
08:18AM 50.9513 0.1243 270° West 233 268 8,700 -1,920 Descending FlightAware ADS-B (EGKK / LGW)
08:18AM 50.9517 0.0970 272° West 237 273 8,200 -1,680 Descending FlightAware ADS-B (EGLL / LHR)
08:18AM 50.9522 0.0848 270° West 237 273 8,100 -540 Descending FlightAware ADS-B (EGHO)
08:19AM 50.9526 0.0560 272° West 233 268 8,000 -180 Descending FlightAware ADS-B (EGLF / FAB)
08:19AM 50.9529 0.0234 271° West 236 272 8,000  Level FlightAware ADS-B (EGLF / FAB)
08:19AM 50.9533 0.0004 271° West 236 272 8,000  Level FlightAware ADS-B (EGLW)
08:19AM 50.9540 -0.0108 285° West 239 275 8,000  Level FlightAware ADS-B (EGLF / FAB)
08:19AM 50.9553 -0.0179 304° West 244 281 8,000  Level FlightAware ADS-B (EGTR / ETR)
08:19AM 50.9595 -0.0304 308° West 245 282 8,000  Level FlightAware ADS-B (EGLL / LHR)
08:20AM 50.9684 -0.0434 326° Northwest 250 288 8,000  Level FlightAware ADS-B (EGKA / ESH)
08:20AM 50.9749 -0.0481 340° North 254 292 8,000  Level FlightAware ADS-B (EGLL / LHR)
08:20AM 50.9814 -0.0506 272° West 234 269 8,000  Level FlightAware ADS-B (EGWE)
08:20AM 50.9856 -0.0512 360° North 259 298 8,000  Level FlightAware ADS-B (EGLW)
08:20AM 50.9908 -0.0511 North 261 300 8,000  Level FlightAware ADS-B (EGKK / LGW)
08:20AM 51.0020 -0.0462 22° Northeast 263 303 8,000  Level FlightAware ADS-B (EGKA / ESH)
08:20AM 51.0064 -0.0423 34° Northeast 257 296 8,000  Level FlightAware ADS-B (EGHL / QLA)
08:20AM 51.0120 -0.0354 42° Northeast 265 305 8,000 -900 Level FlightAware ADS-B (EGKK / LGW)
08:20AM 51.0182 -0.0240 56° Northeast 265 305 7,800 -960 Descending FlightAware ADS-B (EGLW)
08:20AM 51.0216 -0.0150 63° Northeast 259 298 7,800 -900 Level FlightAware ADS-B (EGHO)
08:21AM 51.0292 0.0079 63° Northeast 262 302 7,500 -1,320 Descending FlightAware ADS-B (EGLW)
08:21AM 51.0411 0.0465 64° Northeast 260 299 7,000 -1,320 Descending FlightAware ADS-B (EGLF / FAB)
08:21AM 51.0522 0.0826 64° Northeast 255 293 6,600 -1,140 Descending FlightAware ADS-B (EGLL / LHR)
08:22AM 51.0611 0.1116 64° Northeast 253 291 6,300 -1,140 Descending FlightAware ADS-B (EGLL / LHR)
08:22AM 51.0689 0.1376 65° Northeast 252 290 6,000 -1,320 Descending FlightAware ADS-B (EGLW)
08:22AM 51.0726 0.1505 67° East 250 288 5,800 -1,140 Descending FlightAware ADS-B (EGHL / QLA)
08:22AM 51.0748 0.1571 67° East 250 288 5,800 -480 Level FlightAware ADS-B (EGWU / NHT)
08:22AM 51.0772 0.1661 65° Northeast 251 289 5,700 -660 Descending FlightAware ADS-B (EGLF / FAB)
08:22AM 51.0834 0.1871 67° East 249 287 5,600 -900 Descending FlightAware ADS-B (EGHO)
08:23AM 51.0886 0.2036 58° Northeast 250 288 5,400 -1,080 Descending FlightAware ADS-B (EGLF / FAB)
08:23AM 51.0933 0.2128 45° Northeast 247 284 5,300 -600 Descending FlightAware ADS-B (EGLW)
08:23AM 51.0974 0.2184 37° Northeast 243 280 5,300 -1,020 Level FlightAware ADS-B (EGKA / ESH)
08:23AM 51.0953 0.2160 26° Northeast 239 275 5,200 -720 Descending FlightAware ADS-B (EGLW)
08:23AM 51.1047 0.2249 20° North 235 270 5,200 -480 Level FlightAware ADS-B (EGLF / FAB)
08:23AM 51.1110 0.2274 22° Northeast 237 273 5,100 -720 Descending FlightAware ADS-B (EGLW)
08:23AM 51.1234 0.2269 354° North 212 244 5,000 -600 Descending FlightAware ADS-B (EGKK / LGW)
08:23AM 51.1328 0.2250 353° North 214 246 4,900 -540 Descending FlightAware ADS-B (EGLW)
08:24AM 51.1469 0.2222 353° North 210 242 4,800 -600 Descending FlightAware ADS-B (EGLW)
08:24AM 51.1528 0.2210 353° North 203 234 4,700 -720 Descending FlightAware ADS-B (EGLW)
08:24AM 51.1709 0.2162 339° North 190 219 4,500 -540 Descending FlightAware ADS-B (EGKA / ESH)
08:24AM 51.1746 0.2130 330° Northwest 187 215 4,500 -420 Level FlightAware ADS-B (EGLF / FAB)
08:24AM 51.1706 0.2164 302° West 182 209 4,400 -720 Descending FlightAware ADS-B (EGTR / ETR)
08:25AM 51.1866 0.1854 295° West 179 206 4,200 -840 Descending FlightAware ADS-B (EGKA / ESH)
08:25AM 51.1890 0.1775 281° West 176 203 4,100 -720 Descending FlightAware ADS-B (EGLL / LHR)
08:25AM 51.1923 0.1550 272° West 176 203 3,900 -660 Descending FlightAware ADS-B (EGLF / FAB)
08:25AM 51.1916 0.1408 265° West 179 206 3,800 -420 Descending FlightAware ADS-B (EGLF / FAB)
08:25AM 51.1911 0.1304 261° West 175 201 3,700 -480 Descending FlightAware ADS-B (EGLW)
08:26AM 51.1894 0.1122 259° West 173 199 3,600 -480 Descending FlightAware ADS-B (EGLF / FAB)
08:26AM 51.1859 0.0854 258° West 174 200 3,500 -600 Descending FlightAware ADS-B (EGLL / LHR)
08:26AM 51.1832 0.0655 258° West 167 192 3,300 -720 Descending FlightAware ADS-B (EGLW)
08:26AM 51.1801 0.0429 257° West 160 184 3,100 -840 Descending FlightAware ADS-B (EGLF / FAB)
08:27AM 51.1775 0.0235 258° West 158 182 2,800 -900 Descending FlightAware ADS-B (EGTR / ETR)
08:27AM 51.1739 -0.0025 258° West 158 182 2,500 -1,140 Descending FlightAware ADS-B (EGKK / LGW)
08:27AM 51.1756 0.0099 258° West 157 181 2,300 -960 Descending FlightAware ADS-B (EGLW)
08:28AM 51.1699 -0.0311 258° West 159 183 2,100 -660 Descending FlightAware ADS-B (EGLF / FAB)
08:28AM 51.1673 -0.0502 258° West 159 183 1,900 -720 Descending FlightAware ADS-B (EGKK / LGW)
08:28AM 51.1647 -0.0700 258° West 148 170 1,700 -840 Descending FlightAware ADS-B (EGLF / FAB)
08:29AM 51.1620 -0.0907 261° West 131 151 1,400 -780 Descending FlightAware ADS-B (EGKK / LGW)
08:29AM 51.1594 -0.1093 261° West 127 146 1,200 -600 Descending FlightAware ADS-B (EGKK / LGW)
08:29AM 51.1567 -0.1288 261° West 130 150 1,000 -660 Descending FlightAware ADS-B (EGKK / LGW)
08:29AM 51.1545 -0.1450 261° West 126 145 800 -780 Descending FlightAware ADS-B (EGKK / LGW)
08:30AM 51.1517 -0.1641 261° West 124 143 500 -840 Descending FlightAware ADS-B (EGKK / LGW)